sensor_id;sensor_type;location;lat;lon;timestamp;pressure;altitude;pressure_sealevel;temperature;humidity
12247;BME280;6186;52.022;4.692;2023-06-04T00:00:11;102322.56;;;16.18;45.99
12247;BME280;6186;52.022;4.692;2023-06-04T00:02:37;102327.91;;;16.15;46.09
12247;BME280;6186;52.022;4.692;2023-06-04T00:05:02;102321.81;;;16.11;45.96
12247;BME280;6186;52.022;4.692;2023-06-04T00:07:27;102329.91;;;16.07;46.14
12247;BME280;6186;52.022;4.692;2023-06-04T00:09:53;102329.09;;;16.03;46.11
12247;BME280;6186;52.022;4.692;2023-06-04T00:12:18;102330.91;;;16.01;46.16
12247;BME280;6186;52.022;4.692;2023-06-04T00:14:44;102324.78;;;15.99;46.10
12247;BME280;6186;52.022;4.692;2023-06-04T00:17:10;102324.88;;;15.94;46.18
12247;BME280;6186;52.022;4.692;2023-06-04T00:19:38;102323.16;;;15.92;46.17
12247;BME280;6186;52.022;4.692;2023-06-04T00:22:04;102327.63;;;15.90;46.23
12247;BME280;6186;52.022;4.692;2023-06-04T00:24:29;102327.66;;;15.88;46.26
12247;BME280;6186;52.022;4.692;2023-06-04T00:26:54;102324.22;;;15.85;46.21
12247;BME280;6186;52.022;4.692;2023-06-04T00:29:20;102328.69;;;15.83;46.10
12247;BME280;6186;52.022;4.692;2023-06-04T00:31:45;102320.81;;;15.80;46.14
12247;BME280;6186;52.022;4.692;2023-06-04T00:34:10;102325.28;;;15.78;46.27
12247;BME280;6186;52.022;4.692;2023-06-04T00:36:36;102329.78;;;15.74;46.22
12247;BME280;6186;52.022;4.692;2023-06-04T00:39:01;102328.09;;;15.70;46.17
12247;BME280;6186;52.022;4.692;2023-06-04T00:41:26;102329.97;;;15.67;46.20
12247;BME280;6186;52.022;4.692;2023-06-04T00:43:51;102335.31;;;15.64;46.30
12247;BME280;6186;52.022;4.692;2023-06-04T00:46:17;102331.81;;;15.62;46.24
12247;BME280;6186;52.022;4.692;2023-06-04T00:48:42;102326.50;;;15.62;46.21
12247;BME280;6186;52.022;4.692;2023-06-04T00:51:07;102327.53;;;15.56;46.19
12247;BME280;6186;52.022;4.692;2023-06-04T00:53:33;102327.66;;;15.52;46.26
12247;BME280;6186;52.022;4.692;2023-06-04T00:55:58;102333.84;;;15.51;46.34
12247;BME280;6186;52.022;4.692;2023-06-04T00:58:23;102334.78;;;15.48;46.38
12247;BME280;6186;52.022;4.692;2023-06-04T01:00:49;102330.47;;;15.43;46.31
12247;BME280;6186;52.022;4.692;2023-06-04T01:03:18;102334.91;;;15.41;46.33
12247;BME280;6186;52.022;4.692;2023-06-04T01:05:57;102336.75;;;15.37;46.36
12247;BME280;6186;52.022;4.692;2023-06-04T01:08:26;102339.47;;;15.34;46.39
12247;BME280;6186;52.022;4.692;2023-06-04T01:10:55;102336.88;;;15.31;46.42
12247;BME280;6186;52.022;4.692;2023-06-04T01:13:21;102331.66;;;15.28;46.59
12247;BME280;6186;52.022;4.692;2023-06-04T01:15:46;102339.66;;;15.27;46.38
12247;BME280;6186;52.022;4.692;2023-06-04T01:18:15;102340.56;;;15.24;46.45
12247;BME280;6186;52.022;4.692;2023-06-04T01:20:44;102331.75;;;15.22;46.44
12247;BME280;6186;52.022;4.692;2023-06-04T01:25:42;102336.38;;;15.13;46.62
12247;BME280;6186;52.022;4.692;2023-06-04T01:28:09;102335.53;;;15.10;46.42
12247;BME280;6186;52.022;4.692;2023-06-04T01:30:35;102342.66;;;15.10;46.42
12247;BME280;6186;52.022;4.692;2023-06-04T01:33:02;102340.06;;;15.05;46.48
12247;BME280;6186;52.022;4.692;2023-06-04T01:35:29;102335.69;;;15.03;46.52
12247;BME280;6186;52.022;4.692;2023-06-04T01:37:54;102336.66;;;15.00;46.51
12247;BME280;6186;52.022;4.692;2023-06-04T01:40:21;102337.56;;;14.98;46.63
12247;BME280;6186;52.022;4.692;2023-06-04T01:42:46;102334.09;;;14.94;46.58
12247;BME280;6186;52.022;4.692;2023-06-04T01:45:11;102334.19;;;14.90;46.52
12247;BME280;6186;52.022;4.692;2023-06-04T01:47:37;102336.91;;;14.87;46.56
12247;BME280;6186;52.022;4.692;2023-06-04T01:50:04;102338.75;;;14.83;46.58
12247;BME280;6186;52.022;4.692;2023-06-04T01:52:29;102331.69;;;14.82;46.72
12247;BME280;6186;52.022;4.692;2023-06-04T01:54:55;102338.78;;;14.80;46.64
12247;BME280;6186;52.022;4.692;2023-06-04T01:57:21;102331.78;;;14.76;46.56
12247;BME280;6186;52.022;4.692;2023-06-04T01:59:46;102323.91;;;14.73;46.53
12247;BME280;6186;52.022;4.692;2023-06-04T02:02:12;102331.97;;;14.67;46.47
12247;BME280;6186;52.022;4.692;2023-06-04T02:04:38;102314.56;;;14.53;46.57
12247;BME280;6186;52.022;4.692;2023-06-04T02:07:03;102327.81;;;14.53;46.63
12247;BME280;6186;52.022;4.692;2023-06-04T02:09:28;102326.13;;;14.49;46.60
12247;BME280;6186;52.022;4.692;2023-06-04T02:11:53;102327.03;;;14.46;46.56
12247;BME280;6186;52.022;4.692;2023-06-04T02:14:19;102331.53;;;14.43;46.75
12247;BME280;6186;52.022;4.692;2023-06-04T02:16:44;102328.03;;;14.41;46.85
12247;BME280;6186;52.022;4.692;2023-06-04T02:19:09;102320.09;;;14.39;46.74
12247;BME280;6186;52.022;4.692;2023-06-04T02:21:34;102322.81;;;14.36;46.74
12247;BME280;6186;52.022;4.692;2023-06-04T02:24:00;102324.59;;;14.36;46.73
12247;BME280;6186;52.022;4.692;2023-06-04T02:26:25;102320.19;;;14.33;46.74
12247;BME280;6186;52.022;4.692;2023-06-04T02:28:50;102326.41;;;14.32;46.78
12247;BME280;6186;52.022;4.692;2023-06-04T02:31:15;102323.84;;;14.26;46.83
12247;BME280;6186;52.022;4.692;2023-06-04T02:33:41;102330.03;;;14.24;46.83
12247;BME280;6186;52.022;4.692;2023-06-04T02:36:06;102332.72;;;14.22;46.88
12247;BME280;6186;52.022;4.692;2023-06-04T02:38:32;102329.22;;;14.20;47.05
12247;BME280;6186;52.022;4.692;2023-06-04T02:40:57;102337.19;;;14.18;47.06
12247;BME280;6186;52.022;4.692;2023-06-04T02:43:22;102343.41;;;14.16;47.03
12247;BME280;6186;52.022;4.692;2023-06-04T02:45:47;102343.41;;;14.16;46.99
12247;BME280;6186;52.022;4.692;2023-06-04T02:48:13;102318.94;;;14.02;47.13
12247;BME280;6186;52.022;4.692;2023-06-04T02:50:38;102336.47;;;14.09;47.00
12247;BME280;6186;52.022;4.692;2023-06-04T02:53:03;102333.03;;;14.04;47.11
12247;BME280;6186;52.022;4.692;2023-06-04T02:55:28;102325.97;;;14.03;46.99
12247;BME280;6186;52.022;4.692;2023-06-04T02:57:53;102328.63;;;14.03;47.19
12247;BME280;6186;52.022;4.692;2023-06-04T03:00:19;102329.56;;;13.99;47.01
12247;BME280;6186;52.022;4.692;2023-06-04T03:02:46;102324.31;;;13.96;47.07
12247;BME280;6186;52.022;4.692;2023-06-04T03:05:13;102331.41;;;13.94;47.16
12247;BME280;6186;52.022;4.692;2023-06-04T03:07:41;102330.56;;;13.92;47.15
12247;BME280;6186;52.022;4.692;2023-06-04T03:10:08;102333.22;;;13.90;47.21
12247;BME280;6186;52.022;4.692;2023-06-04T03:12:33;102332.31;;;13.91;47.24
12247;BME280;6186;52.022;4.692;2023-06-04T03:14:58;102332.38;;;13.88;47.30
12247;BME280;6186;52.022;4.692;2023-06-04T03:17:25;102328.88;;;13.86;47.29
12247;BME280;6186;52.022;4.692;2023-06-04T03:19:50;102320.19;;;13.77;47.34
12247;BME280;6186;52.022;4.692;2023-06-04T03:22:16;102323.66;;;13.80;47.36
12247;BME280;6186;52.022;4.692;2023-06-04T03:24:41;102331.66;;;13.79;47.35
12247;BME280;6186;52.022;4.692;2023-06-04T03:27:08;102330.78;;;13.77;47.38
12247;BME280;6186;52.022;4.692;2023-06-04T03:29:34;102325.53;;;13.75;47.30
12247;BME280;6186;52.022;4.692;2023-06-04T03:32:00;102326.44;;;13.73;47.35
12247;BME280;6186;52.022;4.692;2023-06-04T03:34:26;102330.84;;;13.72;47.42
12247;BME280;6186;52.022;4.692;2023-06-04T03:36:52;102322.97;;;13.69;47.48
12247;BME280;6186;52.022;4.692;2023-06-04T03:39:17;102322.06;;;13.72;47.38
12247;BME280;6186;52.022;4.692;2023-06-04T03:41:43;102330.91;;;13.69;47.29
12247;BME280;6186;52.022;4.692;2023-06-04T03:44:08;102325.72;;;13.62;47.52
12247;BME280;6186;52.022;4.692;2023-06-04T03:46:34;102325.69;;;13.63;47.44
12247;BME280;6186;52.022;4.692;2023-06-04T03:48:59;102328.31;;;13.65;47.43
12247;BME280;6186;52.022;4.692;2023-06-04T03:51:24;102324.84;;;13.60;47.61
12247;BME280;6186;52.022;4.692;2023-06-04T03:53:49;102319.63;;;13.57;47.72
12247;BME280;6186;52.022;4.692;2023-06-04T03:56:15;102327.47;;;13.61;47.51
12247;BME280;6186;52.022;4.692;2023-06-04T03:58:40;102332.78;;;13.61;47.49
12247;BME280;6186;52.022;4.692;2023-06-04T04:01:05;102330.16;;;13.60;47.59
12247;BME280;6186;52.022;4.692;2023-06-04T04:03:30;102332.78;;;13.60;47.65
12247;BME280;6186;52.022;4.692;2023-06-04T04:05:55;102341.66;;;13.59;47.87
12247;BME280;6186;52.022;4.692;2023-06-04T04:08:21;102335.50;;;13.57;47.79
12247;BME280;6186;52.022;4.692;2023-06-04T04:10:46;102322.31;;;13.52;47.83
12247;BME280;6186;52.022;4.692;2023-06-04T04:13:11;102334.63;;;13.56;47.94
12247;BME280;6186;52.022;4.692;2023-06-04T04:15:36;102337.22;;;13.58;47.94
12247;BME280;6186;52.022;4.692;2023-06-04T04:18:01;102330.19;;;13.58;47.93
12247;BME280;6186;52.022;4.692;2023-06-04T04:20:27;102336.28;;;13.62;47.91
12247;BME280;6186;52.022;4.692;2023-06-04T04:22:52;102336.28;;;13.63;47.95
12247;BME280;6186;52.022;4.692;2023-06-04T04:25:17;102329.25;;;13.62;48.11
12247;BME280;6186;52.022;4.692;2023-06-04T04:27:42;102333.66;;;13.62;48.04
12247;BME280;6186;52.022;4.692;2023-06-04T04:30:08;102331.88;;;13.62;48.10
12247;BME280;6186;52.022;4.692;2023-06-04T04:32:33;102327.47;;;13.61;48.04
12247;BME280;6186;52.022;4.692;2023-06-04T04:34:58;102339.81;;;13.62;48.15
12247;BME280;6186;52.022;4.692;2023-06-04T04:37:24;102331.88;;;13.64;48.23
12247;BME280;6186;52.022;4.692;2023-06-04T04:39:49;102329.25;;;13.62;48.11
12247;BME280;6186;52.022;4.692;2023-06-04T04:42:14;102337.09;;;13.67;48.27
12247;BME280;6186;52.022;4.692;2023-06-04T04:44:39;102328.28;;;13.68;48.33
12247;BME280;6186;52.022;4.692;2023-06-04T04:47:05;102333.53;;;13.69;48.26
12247;BME280;6186;52.022;4.692;2023-06-04T04:49:30;102339.69;;;13.71;48.40
12247;BME280;6186;52.022;4.692;2023-06-04T04:51:55;102326.44;;;13.73;48.51
12247;BME280;6186;52.022;4.692;2023-06-04T04:54:20;102335.19;;;13.76;48.55
12247;BME280;6186;52.022;4.692;2023-06-04T04:56:45;102332.53;;;13.79;48.55
12247;BME280;6186;52.022;4.692;2023-06-04T04:59:11;102322.78;;;13.81;48.65
12247;BME280;6186;52.022;4.692;2023-06-04T05:01:36;102324.50;;;13.84;48.64
12247;BME280;6186;52.022;4.692;2023-06-04T05:04:01;102328.88;;;13.86;48.66
12247;BME280;6186;52.022;4.692;2023-06-04T05:06:26;102327.97;;;13.87;48.60
12247;BME280;6186;52.022;4.692;2023-06-04T05:08:52;102322.69;;;13.87;48.67
12247;BME280;6186;52.022;4.692;2023-06-04T05:11:17;102338.50;;;13.92;48.70
12247;BME280;6186;52.022;4.692;2023-06-04T05:13:42;102339.38;;;13.92;48.75
12247;BME280;6186;52.022;4.692;2023-06-04T05:16:07;102336.72;;;13.94;48.85
12247;BME280;6186;52.022;4.692;2023-06-04T05:18:34;102336.69;;;13.95;48.78
12247;BME280;6186;52.022;4.692;2023-06-04T05:21:00;102338.44;;;13.95;48.98
12247;BME280;6186;52.022;4.692;2023-06-04T05:23:26;102341.06;;;13.98;48.88
12247;BME280;6186;52.022;4.692;2023-06-04T05:25:51;102346.28;;;14.01;49.06
12247;BME280;6186;52.022;4.692;2023-06-04T05:28:16;102344.47;;;14.04;49.07
12247;BME280;6186;52.022;4.692;2023-06-04T05:30:42;102346.22;;;14.07;49.19
12247;BME280;6186;52.022;4.692;2023-06-04T05:33:07;102347.94;;;14.09;49.14
12247;BME280;6186;52.022;4.692;2023-06-04T05:35:32;102345.25;;;14.12;49.27
12247;BME280;6186;52.022;4.692;2023-06-04T05:37:58;102347.84;;;14.14;49.21
12247;BME280;6186;52.022;4.692;2023-06-04T05:40:23;102341.63;;;14.18;49.42
12247;BME280;6186;52.022;4.692;2023-06-04T05:42:48;102345.09;;;14.23;49.50
12247;BME280;6186;52.022;4.692;2023-06-04T05:45:14;102345.03;;;14.26;49.54
12247;BME280;6186;52.022;4.692;2023-06-04T05:47:39;102346.75;;;14.30;49.56
12247;BME280;6186;52.022;4.692;2023-06-04T05:50:04;102352.00;;;14.33;49.57
12247;BME280;6186;52.022;4.692;2023-06-04T05:52:31;102350.19;;;14.35;49.56
12247;BME280;6186;52.022;4.692;2023-06-04T05:54:57;102338.72;;;14.35;49.77
12247;BME280;6186;52.022;4.692;2023-06-04T05:57:22;102352.75;;;14.41;49.64
12247;BME280;6186;52.022;4.692;2023-06-04T05:59:47;102357.13;;;14.42;49.83
12247;BME280;6186;52.022;4.692;2023-06-04T06:02:12;102350.94;;;14.43;49.90
12247;BME280;6186;52.022;4.692;2023-06-04T06:04:37;102355.28;;;14.49;49.97
12247;BME280;6186;52.022;4.692;2023-06-04T06:07:03;102351.69;;;14.51;49.94
12247;BME280;6186;52.022;4.692;2023-06-04T06:09:28;102351.63;;;14.54;50.01
12247;BME280;6186;52.022;4.692;2023-06-04T06:11:53;102354.22;;;14.57;49.96
12247;BME280;6186;52.022;4.692;2023-06-04T06:14:19;102359.44;;;14.62;50.10
12247;BME280;6186;52.022;4.692;2023-06-04T06:16:44;102350.50;;;14.67;50.13
12247;BME280;6186;52.022;4.692;2023-06-04T06:19:09;102354.78;;;14.74;50.33
12247;BME280;6186;52.022;4.692;2023-06-04T06:21:34;102354.75;;;14.77;50.46
12247;BME280;6186;52.022;4.692;2023-06-04T06:24:00;102352.91;;;14.81;50.35
12247;BME280;6186;52.022;4.692;2023-06-04T06:26:25;102350.19;;;14.85;50.57
12247;BME280;6186;52.022;4.692;2023-06-04T06:28:50;102357.09;;;14.94;50.76
12247;BME280;6186;52.022;4.692;2023-06-04T06:31:16;102356.97;;;15.00;50.66
12247;BME280;6186;52.022;4.692;2023-06-04T06:33:41;102349.94;;;14.97;50.77
12247;BME280;6186;52.022;4.692;2023-06-04T06:36:08;102360.38;;;15.08;50.63
12247;BME280;6186;52.022;4.692;2023-06-04T06:38:33;102363.75;;;15.15;50.79
12247;BME280;6186;52.022;4.692;2023-06-04T06:40:58;102361.91;;;15.20;51.08
12247;BME280;6186;52.022;4.692;2023-06-04T06:43:23;102372.22;;;15.33;51.06
12247;BME280;6186;52.022;4.692;2023-06-04T06:45:48;102365.91;;;15.40;51.09
12247;BME280;6186;52.022;4.692;2023-06-04T06:48:14;102370.28;;;15.44;51.04
12247;BME280;6186;52.022;4.692;2023-06-04T06:50:39;102372.81;;;15.49;51.28
12247;BME280;6186;52.022;4.692;2023-06-04T06:53:04;102369.16;;;15.54;51.30
12247;BME280;6186;52.022;4.692;2023-06-04T06:55:29;102377.78;;;15.64;51.45
12247;BME280;6186;52.022;4.692;2023-06-04T06:57:55;102370.53;;;15.72;51.48
12247;BME280;6186;52.022;4.692;2023-06-04T07:00:20;102369.50;;;15.79;51.46
12247;BME280;6186;52.022;4.692;2023-06-04T07:02:45;102367.56;;;15.87;51.68
12247;BME280;6186;52.022;4.692;2023-06-04T07:05:11;102370.00;;;15.96;51.70
12247;BME280;6186;52.022;4.692;2023-06-04T07:07:36;102374.16;;;16.08;52.09
12247;BME280;6186;52.022;4.692;2023-06-04T07:10:02;102374.66;;;16.23;52.32
12247;BME280;6186;52.022;4.692;2023-06-04T07:12:27;102373.47;;;16.36;52.32
12247;BME280;6186;52.022;4.692;2023-06-04T07:14:52;102375.84;;;16.48;52.21
12247;BME280;6186;52.022;4.692;2023-06-04T07:17:17;102366.75;;;16.57;52.36
12247;BME280;6186;52.022;4.692;2023-06-04T07:19:43;102371.69;;;16.72;52.56
12247;BME280;6186;52.022;4.692;2023-06-04T07:22:08;102371.22;;;16.88;52.76
12247;BME280;6186;52.022;4.692;2023-06-04T07:24:33;102372.47;;;17.08;52.89
12247;BME280;6186;52.022;4.692;2023-06-04T07:26:58;102374.44;;;17.32;53.34
12247;BME280;6186;52.022;4.692;2023-06-04T07:29:24;102376.56;;;17.51;53.20
12247;BME280;6186;52.022;4.692;2023-06-04T07:31:49;102374.34;;;17.67;53.18
12247;BME280;6186;52.022;4.692;2023-06-04T07:34:14;102368.72;;;17.76;53.24
12247;BME280;6186;52.022;4.692;2023-06-04T07:36:39;102376.38;;;17.86;53.39
12247;BME280;6186;52.022;4.692;2023-06-04T07:39:05;102367.13;;;17.98;53.40
12247;BME280;6186;52.022;4.692;2023-06-04T07:41:30;102379.19;;;18.10;53.42
12247;BME280;6186;52.022;4.692;2023-06-04T07:43:55;102374.25;;;18.25;53.79
12247;BME280;6186;52.022;4.692;2023-06-04T07:46:20;102369.34;;;18.39;53.80
12247;BME280;6186;52.022;4.692;2023-06-04T07:48:46;102360.97;;;18.51;53.74
12247;BME280;6186;52.022;4.692;2023-06-04T07:51:12;102367.75;;;18.61;53.75
12247;BME280;6186;52.022;4.692;2023-06-04T07:53:38;102368.13;;;18.75;53.97
12247;BME280;6186;52.022;4.692;2023-06-04T07:56:03;102368.72;;;18.84;53.82
12247;BME280;6186;52.022;4.692;2023-06-04T07:58:29;102370.25;;;18.91;53.78
12247;BME280;6186;52.022;4.692;2023-06-04T08:00:54;102369.13;;;18.98;53.78
12247;BME280;6186;52.022;4.692;2023-06-04T08:03:20;102366.00;;;19.10;53.89
12247;BME280;6186;52.022;4.692;2023-06-04T08:05:45;102371.78;;;19.22;54.10
12247;BME280;6186;52.022;4.692;2023-06-04T08:08:10;102372.13;;;19.38;54.29
12247;BME280;6186;52.022;4.692;2023-06-04T08:10:35;102369.66;;;19.55;54.48
12247;BME280;6186;52.022;4.692;2023-06-04T08:13:01;102370.84;;;19.71;54.52
12247;BME280;6186;52.022;4.692;2023-06-04T08:15:26;102368.63;;;19.82;54.50
12247;BME280;6186;52.022;4.692;2023-06-04T08:17:51;102372.53;;;19.95;54.59
12247;BME280;6186;52.022;4.692;2023-06-04T08:20:16;102370.13;;;20.11;54.87
12247;BME280;6186;52.022;4.692;2023-06-04T08:22:41;102373.91;;;20.28;54.99
12247;BME280;6186;52.022;4.692;2023-06-04T08:25:07;102363.81;;;20.35;54.78
12247;BME280;6186;52.022;4.692;2023-06-04T08:27:33;102353.84;;;20.38;54.58
12247;BME280;6186;52.022;4.692;2023-06-04T08:29:58;102364.72;;;20.55;54.87
12247;BME280;6186;52.022;4.692;2023-06-04T08:32:23;102362.34;;;20.70;55.16
12247;BME280;6186;52.022;4.692;2023-06-04T08:34:49;102371.16;;;20.92;55.58
12247;BME280;6186;52.022;4.692;2023-06-04T08:37:14;102365.88;;;21.12;55.55
12247;BME280;6186;52.022;4.692;2023-06-04T08:39:39;102369.84;;;21.22;55.30
12247;BME280;6186;52.022;4.692;2023-06-04T08:42:06;102370.19;;;21.34;55.69
12247;BME280;6186;52.022;4.692;2023-06-04T08:44:32;102368.75;;;21.46;55.60
12247;BME280;6186;52.022;4.692;2023-06-04T08:47:03;102366.16;;;21.63;55.92
12247;BME280;6186;52.022;4.692;2023-06-04T08:49:33;102373.53;;;21.77;55.63
12247;BME280;6186;52.022;4.692;2023-06-04T08:51:59;102379.00;;;21.94;56.29
12247;BME280;6186;52.022;4.692;2023-06-04T08:54:25;102379.41;;;22.03;56.11
12247;BME280;6186;52.022;4.692;2023-06-04T08:56:51;102380.88;;;22.10;55.83
12247;BME280;6186;52.022;4.692;2023-06-04T08:59:16;102379.63;;;22.17;56.28
12247;BME280;6186;52.022;4.692;2023-06-04T09:01:42;102370.13;;;22.29;56.42
12247;BME280;6186;52.022;4.692;2023-06-04T09:04:07;102378.25;;;22.44;56.30
12247;BME280;6186;52.022;4.692;2023-06-04T09:06:33;102376.56;;;22.61;56.53
12247;BME280;6186;52.022;4.692;2023-06-04T09:09:01;102378.66;;;22.73;56.46
12247;BME280;6186;52.022;4.692;2023-06-04T09:11:33;102378.88;;;22.85;56.67
12247;BME280;6186;52.022;4.692;2023-06-04T09:14:01;102387.81;;;23.03;57.05
12247;BME280;6186;52.022;4.692;2023-06-04T09:16:28;102388.34;;;23.09;56.57
12247;BME280;6186;52.022;4.692;2023-06-04T09:18:54;102379.88;;;23.17;56.71
12247;BME280;6186;52.022;4.692;2023-06-04T09:21:19;102381.13;;;23.27;56.81
12247;BME280;6186;52.022;4.692;2023-06-04T09:23:46;102382.13;;;23.42;57.16
12247;BME280;6186;52.022;4.692;2023-06-04T09:26:11;102375.50;;;23.49;56.64
12247;BME280;6186;52.022;4.692;2023-06-04T09:28:44;102374.63;;;23.48;56.67
12247;BME280;6186;52.022;4.692;2023-06-04T09:31:14;102376.97;;;23.70;57.36
12247;BME280;6186;52.022;4.692;2023-06-04T09:33:49;102377.78;;;23.87;57.63
12247;BME280;6186;52.022;4.692;2023-06-04T09:36:15;102381.53;;;24.00;57.64
12247;BME280;6186;52.022;4.692;2023-06-04T09:38:41;102374.81;;;24.09;57.62
12247;BME280;6186;52.022;4.692;2023-06-04T09:41:13;102385.72;;;24.21;57.54
12247;BME280;6186;52.022;4.692;2023-06-04T09:43:39;102386.50;;;24.23;57.53
12247;BME280;6186;52.022;4.692;2023-06-04T09:46:12;102380.03;;;24.42;58.00
12247;BME280;6186;52.022;4.692;2023-06-04T09:48:38;102387.31;;;24.55;57.89
12247;BME280;6186;52.022;4.692;2023-06-04T09:51:15;102385.72;;;24.67;57.80
12247;BME280;6186;52.022;4.692;2023-06-04T09:53:41;102378.56;;;24.81;58.13
12247;BME280;6186;52.022;4.692;2023-06-04T09:56:07;102382.56;;;25.04;58.34
12247;BME280;6186;52.022;4.692;2023-06-04T09:58:32;102373.53;;;25.19;58.72
12247;BME280;6186;52.022;4.692;2023-06-04T10:00:59;102369.53;;;25.40;58.55
12247;BME280;6186;52.022;4.692;2023-06-04T10:03:25;102378.03;;;25.62;58.96
12247;BME280;6186;52.022;4.692;2023-06-04T10:05:56;102377.41;;;25.85;59.09
12247;BME280;6186;52.022;4.692;2023-06-04T10:08:22;102390.31;;;25.94;58.16
12247;BME280;6186;52.022;4.692;2023-06-04T10:10:50;102378.38;;;25.84;57.52
12247;BME280;6186;52.022;4.692;2023-06-04T10:13:19;102377.56;;;25.70;57.03
12247;BME280;6186;52.022;4.692;2023-06-04T10:15:46;102378.22;;;25.73;57.38
12247;BME280;6186;52.022;4.692;2023-06-04T10:18:13;102370.00;;;25.89;57.66
12247;BME280;6186;52.022;4.692;2023-06-04T10:20:40;102377.38;;;25.99;57.48
12247;BME280;6186;52.022;4.692;2023-06-04T10:23:06;102380.63;;;26.04;57.34
12247;BME280;6186;52.022;4.692;2023-06-04T10:25:31;102378.56;;;26.10;56.84
12247;BME280;6186;52.022;4.692;2023-06-04T10:27:57;102377.28;;;26.15;57.04
12247;BME280;6186;52.022;4.692;2023-06-04T10:30:22;102373.88;;;26.26;56.81
12247;BME280;6186;52.022;4.692;2023-06-04T10:32:47;102378.00;;;26.31;56.73
12247;BME280;6186;52.022;4.692;2023-06-04T10:35:13;102375.19;;;26.33;56.43
12247;BME280;6186;52.022;4.692;2023-06-04T10:37:38;102378.25;;;26.41;56.10
12247;BME280;6186;52.022;4.692;2023-06-04T10:40:04;102373.25;;;26.35;55.76
12247;BME280;6186;52.022;4.692;2023-06-04T10:42:38;102381.28;;;26.36;55.57
12247;BME280;6186;52.022;4.692;2023-06-04T10:45:03;102382.38;;;26.46;56.01
12247;BME280;6186;52.022;4.692;2023-06-04T10:47:29;102387.31;;;26.66;56.03
12247;BME280;6186;52.022;4.692;2023-06-04T10:49:54;102383.13;;;26.75;55.45
12247;BME280;6186;52.022;4.692;2023-06-04T10:52:21;102373.38;;;26.72;54.94
12247;BME280;6186;52.022;4.692;2023-06-04T10:54:47;102376.00;;;26.74;55.00
12247;BME280;6186;52.022;4.692;2023-06-04T10:57:13;102369.44;;;26.78;54.27
12247;BME280;6186;52.022;4.692;2023-06-04T10:59:39;102376.44;;;26.80;54.02
12247;BME280;6186;52.022;4.692;2023-06-04T11:02:06;102374.84;;;26.90;54.61
12247;BME280;6186;52.022;4.692;2023-06-04T11:04:31;102377.34;;;27.06;54.46
12247;BME280;6186;52.022;4.692;2023-06-04T11:07:04;102378.22;;;27.19;55.02
12247;BME280;6186;52.022;4.692;2023-06-04T11:09:31;102374.97;;;27.27;54.22
12247;BME280;6186;52.022;4.692;2023-06-04T11:12:01;102374.56;;;27.45;54.39
12247;BME280;6186;52.022;4.692;2023-06-04T11:14:26;102372.16;;;27.66;54.47
12247;BME280;6186;52.022;4.692;2023-06-04T11:16:52;102370.16;;;27.80;54.44
12247;BME280;6186;52.022;4.692;2023-06-04T11:19:17;102374.94;;;27.89;54.43
12247;BME280;6186;52.022;4.692;2023-06-04T11:21:43;102374.59;;;27.94;53.67
12247;BME280;6186;52.022;4.692;2023-06-04T11:24:12;102365.94;;;27.76;52.87
12247;BME280;6186;52.022;4.692;2023-06-04T11:26:37;102363.47;;;27.73;53.01
12247;BME280;6186;52.022;4.692;2023-06-04T11:29:06;102365.19;;;27.87;53.00
12247;BME280;6186;52.022;4.692;2023-06-04T11:31:45;102367.34;;;27.95;52.84
12247;BME280;6186;52.022;4.692;2023-06-04T11:34:24;102366.03;;;28.00;52.25
12247;BME280;6186;52.022;4.692;2023-06-04T11:36:50;102364.25;;;28.12;53.15
12247;BME280;6186;52.022;4.692;2023-06-04T11:39:15;102352.97;;;28.18;52.20
12247;BME280;6186;52.022;4.692;2023-06-04T11:41:41;102356.34;;;28.09;51.72
12247;BME280;6186;52.022;4.692;2023-06-04T11:44:07;102348.88;;;28.12;51.76
12247;BME280;6186;52.022;4.692;2023-06-04T11:46:33;102351.09;;;28.18;51.50
12247;BME280;6186;52.022;4.692;2023-06-04T11:48:59;102349.47;;;28.05;50.87
12247;BME280;6186;52.022;4.692;2023-06-04T11:51:24;102345.38;;;27.99;50.51
12247;BME280;6186;52.022;4.692;2023-06-04T11:53:51;102355.84;;;28.04;51.03
12247;BME280;6186;52.022;4.692;2023-06-04T11:56:16;102321.84;;;28.00;51.18
12247;BME280;6186;52.022;4.692;2023-06-04T11:58:43;102336.09;;;28.14;50.79
12247;BME280;6186;52.022;4.692;2023-06-04T12:01:08;102335.34;;;28.12;50.18
12247;BME280;6186;52.022;4.692;2023-06-04T12:03:41;102343.84;;;28.19;50.56
12247;BME280;6186;52.022;4.692;2023-06-04T12:06:17;102346.16;;;28.36;51.07
12247;BME280;6186;52.022;4.692;2023-06-04T12:08:47;102343.09;;;28.40;50.86
12247;BME280;6186;52.022;4.692;2023-06-04T12:13:51;102338.78;;;28.38;50.46
12247;BME280;6186;52.022;4.692;2023-06-04T12:16:16;102335.78;;;28.30;49.82
12247;BME280;6186;52.022;4.692;2023-06-04T12:18:41;102325.56;;;28.33;49.87
12247;BME280;6186;52.022;4.692;2023-06-04T12:21:23;102341.31;;;28.28;49.46
12247;BME280;6186;52.022;4.692;2023-06-04T12:23:49;102324.38;;;28.14;49.45
12247;BME280;6186;52.022;4.692;2023-06-04T12:26:22;102335.63;;;27.97;48.76
12247;BME280;6186;52.022;4.692;2023-06-04T12:28:58;102336.78;;;27.92;49.08
12247;BME280;6186;52.022;4.692;2023-06-04T12:31:23;102334.31;;;27.89;48.82
12247;BME280;6186;52.022;4.692;2023-06-04T12:33:49;102333.97;;;28.07;49.33
12247;BME280;6186;52.022;4.692;2023-06-04T12:36:14;102337.34;;;28.21;49.26
12247;BME280;6186;52.022;4.692;2023-06-04T12:38:39;102328.84;;;28.26;49.14
12247;BME280;6186;52.022;4.692;2023-06-04T12:41:04;102329.53;;;28.29;49.16
12247;BME280;6186;52.022;4.692;2023-06-04T12:43:30;102333.53;;;28.24;48.75
12247;BME280;6186;52.022;4.692;2023-06-04T12:45:55;102330.69;;;28.14;48.56
12247;BME280;6186;52.022;4.692;2023-06-04T12:48:20;102335.03;;;28.04;48.05
12247;BME280;6186;52.022;4.692;2023-06-04T12:50:45;102336.78;;;27.92;47.74
12247;BME280;6186;52.022;4.692;2023-06-04T12:53:10;102339.94;;;27.86;48.02
12247;BME280;6186;52.022;4.692;2023-06-04T12:55:36;102325.88;;;27.94;48.42
12247;BME280;6186;52.022;4.692;2023-06-04T12:58:01;102328.56;;;27.94;47.95